Latest Weather Observations for Larapuna (Eddystone Point)

IDT60801

Issued at 8:01 am EDT Thursday 2 April 2015 (issued every 30 minutes, with the page automatically refreshed every 10 minutes)

About weather observations | Map of weather stations | Latest weather observations for TAS | Other Formats
Station Details ID: 092045 Name: LARAPUNA (EDDYSTONE POINT) Lat: -40.99 Lon: 148.35 Height: 19.7 m
Data from the previous 72 hours. | See also: Recent months at Larapuna (Eddystone Point)
Date/Time
EDT
Temp
°C
App
Temp
°C
Dew
Point
Rel
Hum
%
Delta-T
°C
Wind Press
QNH
hPa
Press
MSL
hPa
Rain
since 9 am
mm
Dir
 
Spd
km/h
Gust
km/h
Spd
kts
Gust
kts
02/08:00am 15.1 7.6 12.6 85 1.4 SSE 44 52 24 28 1010.6 1010.6 0.0
02/07:40am 15.6 8.8 12.0 79 2.0 SSE 39 57 21 31 1010.1 1010.1 0.0
02/07:30am 15.6 12.1 12.2 80 1.9 S 22 35 12 19 1010.5 1010.5 0.0
02/07:00am 16.0 15.0 13.3 84 1.5 SW 11 15 6 8 1010.1 1010.1 0.0
02/06:30am 15.9 14.4 13.2 84 1.5 SW 13 17 7 9 1009.4 1009.4 0.0
02/06:00am 16.0 13.6 12.7 81 1.8 W 17 26 9 14 1008.7 1008.7 0.0
02/05:30am 16.5 12.4 12.7 78 2.1 WNW 26 39 14 21 1008.4 1008.4 0.0
02/05:00am 16.8 12.7 13.9 83 1.6 WNW 28 41 15 22 1007.6 1007.6 0.0
02/04:30am 17.3 13.0 14.4 83 1.7 NW 30 43 16 23 1007.5 1007.5 0.0
02/04:00am 17.7 13.7 14.2 80 2.0 NW 28 46 15 25 1007.5 1007.5 0.0
02/03:56am 17.7 13.7 14.2 80 2.0 NW 28 46 15 25 1007.3 1007.3 0.0
02/03:30am 18.1 13.7 14.0 77 2.3 WNW 30 41 16 22 1007.3 1007.3 0.0
02/03:00am 18.7 14.4 13.1 70 3.2 WNW 28 46 15 25 1007.4 1007.4 0.0
02/02:30am 19.2 14.3 12.5 65 3.8 WNW 30 41 16 22 1007.4 1007.4 0.0
02/02:00am 19.6 14.5 13.1 66 3.7 WNW 32 44 17 24 1007.6 1007.6 0.0
02/01:30am 20.2 14.1 12.9 63 4.1 WNW 37 50 20 27 1007.5 1007.5 0.0
02/01:10am 21.1 15.3 12.8 59 4.7 NW 35 54 19 29 1007.8 1007.8 0.0
02/01:00am 21.2 15.2 13.4 61 4.5 NW 37 52 20 28 1007.9 1007.9 0.0
02/12:30am 20.5 15.0 13.7 65 3.9 WNW 35 50 19 27 1008.5 1008.5 0.0
02/12:14am 20.2 15.3 12.7 62 4.2 WNW 30 50 16 27 1008.1 1008.1 0.0
02/12:07am 19.4 13.4 14.4 73 2.9 N 39 54 21 29 1007.8 1007.8 0.0
02/12:00am 19.3 12.0 14.6 74 2.7 N 46 57 25 31 1007.1 1007.1 0.0
 
Date/Time
EDT
Temp
°C
App
Temp
°C
Dew
Point
Rel
Hum
%
Delta-T
°C
Wind Press
QNH
hPa
Press
MSL
hPa
Rain
since 9 am
mm
Dir
 
Spd
km/h
Gust
km/h
Spd
kts
Gust
kts
01/11:30pm 19.2 11.1 14.5 74 2.7 N 50 59 27 32 1007.6 1007.6 0.0
01/11:00pm 19.1 11.8 14.6 75 2.6 N 46 57 25 31 1008.1 1008.1 0.0
01/10:30pm 18.8 12.6 14.9 78 2.3 N 41 50 22 27 1008.7 1008.7 0.0
01/10:00pm 18.8 13.0 14.9 78 2.3 N 39 50 21 27 1009.1 1009.1 0.0
01/09:30pm 18.5 14.8 15.0 80 2.0 NNW 28 37 15 20 1009.7 1009.7 0.0
01/09:00pm 18.7 15.8 15.0 79 2.2 N 24 35 13 19 1010.0 1010.0 0.0
01/08:44pm 18.0 15.6 15.3 84 1.6 N 22 33 12 18 1010.5 1010.5 0.0
01/08:30pm 17.6 17.9 16.1 91 0.9 N 9 13 5 7 1010.7 1010.7 0.0
01/08:00pm 17.7 16.9 16.2 91 0.9 NNE 15 17 8 9 1011.2 1011.2 0.0
01/07:30pm 17.5 17.0 15.8 90 1.0 N 13 17 7 9 1011.3 1011.3 0.0
01/07:00pm 17.8 17.3 16.0 89 1.1 NNE 13 17 7 9 1011.3 1011.3 0.0
01/06:30pm 18.4 17.7 16.4 88 1.2 N 15 20 8 11 1011.3 1011.3 0.0
01/06:00pm 18.4 17.5 15.8 85 1.5 N 15 19 8 10 1011.7 1011.7 0.0
01/05:30pm 18.8 18.0 16.0 84 1.7 N 15 17 8 9 1011.8 1011.8 0.0
01/05:00pm 19.0 17.4 15.9 82 1.8 N 19 26 10 14 1012.0 1012.0 0.0
01/04:30pm 19.2 16.8 15.5 79 2.2 NNW 22 28 12 15 1012.3 1012.3 0.0
01/04:00pm 19.7 16.4 15.1 75 2.7 N 26 33 14 18 1012.6 1012.6 0.0
01/03:30pm 20.3 16.9 15.7 75 2.7 N 28 35 15 19 1012.9 1012.9 0.0
01/03:00pm 20.3 16.9 15.7 75 2.7 N 28 33 15 18 1013.3 1013.3 0.0
01/02:30pm 19.3 16.1 16.2 82 1.9 N 28 32 15 17 1013.8 1013.8 0.0
01/02:00pm 18.8 14.9 15.5 81 1.9 N 30 33 16 18 1014.2 1014.2 0.0
01/01:30pm 19.7 15.9 15.8 78 2.3 N 30 37 16 20 1014.7 1014.7 0.0
01/01:00pm 18.9 15.4 15.6 81 1.9 N 28 33 15 18 1015.3 1015.3 0.0
01/12:30pm 19.1 16.9 16.0 82 1.8 N 22 28 12 15 1015.9 1015.9 0.0
01/12:00pm 17.6 14.7 15.2 86 1.4 N 24 30 13 16 1016.4 1016.4 0.0
01/11:30am 17.0 14.4 15.0 88 1.2 N 22 28 12 15 1016.9 1016.9 0.0
01/11:00am 16.8 14.2 14.8 88 1.2 N 22 28 12 15 1017.2 1017.2 0.0
01/10:30am 16.8 14.5 14.6 87 1.3 NNW 20 24 11 13 1017.7 1017.7 0.0
01/10:00am 16.5 14.3 14.3 87 1.3 NNW 19 22 10 12 1018.3 1018.3 0.0
01/09:30am 15.9 13.6 14.1 89 1.0 NNW 19 20 10 11 1018.4 1018.4 0.0
01/09:00am 15.4 13.3 13.6 89 1.0 NW 17 20 9 11 1018.5 1018.5 0.0
01/08:30am 14.9 13.1 13.3 90 0.9 NNW 15 20 8 11 1018.9 1018.9 0.0
01/08:00am 13.5 11.7 12.2 92 0.7 NW 13 15 7 8 1019.2 1019.2 0.0
01/07:30am 13.5 11.3 12.2 92 0.7 NW 15 19 8 10 1019.2 1019.2 0.0
01/07:00am 13.1 11.2 11.8 92 0.7 NNW 13 17 7 9 1019.0 1019.0 0.0
01/06:30am 12.7 10.6 11.1 90 0.8 W 13 15 7 8 1019.1 1019.1 0.0
01/06:00am 13.4 11.4 11.6 89 1.0 NW 13 15 7 8 1019.4 1019.4 0.0
01/05:30am 13.2 10.4 11.3 88 1.0 W 17 20 9 11 1019.4 1019.4 0.0
01/05:00am 13.2 10.8 11.4 89 1.0 WNW 15 20 8 11 1019.6 1019.6 0.0
01/04:30am 13.5 10.4 11.7 89 1.0 WNW 19 24 10 13 1019.7 1019.7 0.0
01/04:00am 13.7 10.4 11.7 88 1.1 WNW 20 26 11 14 1020.0 1020.0 0.0
01/03:30am 13.9 11.3 11.9 88 1.1 WNW 17 22 9 12 1020.4 1020.4 0.0
01/03:00am 13.9 10.9 11.9 88 1.1 WNW 19 26 10 14 1020.8 1020.8 0.0
01/02:30am 13.6 10.4 11.8 89 1.0 WNW 20 28 11 15 1021.3 1021.3 0.0
01/02:00am 13.7 10.1 11.9 89 1.0 NW 22 30 12 16 1021.8 1021.8 0.0
01/01:30am 13.8 10.6 11.8 88 1.1 NW 20 28 11 15 1022.0 1022.0 0.0
01/01:00am 14.0 11.0 12.0 88 1.1 NW 19 26 10 14 1022.4 1022.4 0.0
01/12:30am 14.1 10.5 12.0 87 1.1 NW 22 28 12 15 1022.6 1022.6 0.0
01/12:00am 14.1 10.9 12.0 87 1.1 NW 20 28 11 15 1023.0 1023.0 0.0
 
Date/Time
EDT
Temp
°C
App
Temp
°C
Dew
Point
Rel
Hum
%
Delta-T
°C
Wind Press
QNH
hPa
Press
MSL
hPa
Rain
since 9 am
mm
Dir
 
Spd
km/h
Gust
km/h
Spd
kts
Gust
kts
31/11:30pm 14.6 11.5 12.1 85 1.4 NW 20 28 11 15 1023.2 1023.2 0.0
31/11:00pm 14.7 11.1 12.0 84 1.5 NW 22 28 12 15 1023.2 1023.2 0.0
31/10:30pm 14.9 11.8 12.2 84 1.5 NW 20 28 11 15 1023.3 1023.3 0.0
31/10:00pm 14.9 11.9 12.4 85 1.4 NW 20 24 11 13 1023.2 1023.2 0.0
31/09:30pm 14.9 11.8 12.2 84 1.5 NW 20 26 11 14 1023.2 1023.2 0.0
31/09:00pm 15.0 11.5 12.1 83 1.6 NW 22 28 12 15 1023.0 1023.0 0.0
31/08:30pm 15.3 11.8 12.2 82 1.7 NW 22 30 12 16 1022.8 1022.8 0.0
31/08:00pm 15.5 12.0 12.3 81 1.7 NW 22 28 12 15 1022.6 1022.6 0.0
31/07:30pm 15.9 11.6 12.1 78 2.1 NW 26 33 14 18 1022.4 1022.4 0.0
31/07:00pm 16.4 10.9 11.8 74 2.5 WNW 32 41 17 22 1022.2 1022.2 0.0
31/06:30pm 17.3 11.9 12.2 72 2.8 WNW 32 43 17 23 1021.9 1021.9 0.0
31/06:00pm 17.7 13.4 12.2 70 3.0 NW 26 43 14 23 1022.0 1022.0 0.0
31/05:30pm 18.7 14.4 12.2 66 3.6 WNW 26 44 14 24 1022.2 1022.2 0.0
31/05:00pm 18.7 13.6 12.0 65 3.7 WNW 30 46 16 25 1022.3 1022.3 0.0
31/04:56pm 18.7 13.9 11.8 64 3.8 WNW 28 46 15 25 1022.3 1022.3 0.0
31/04:30pm 19.1 14.4 12.1 64 3.9 WNW 28 41 15 22 1022.3 1022.3 0.0
31/04:03pm 19.2 14.4 11.5 61 4.2 NW 28 48 15 26 1022.4 1022.4 0.0
31/04:00pm 19.5 15.2 12.0 62 4.2 NW 26 41 14 22 1022.4 1022.4 0.0
31/03:34pm 20.0 14.7 12.5 62 4.2 WNW 32 50 17 27 1022.6 1022.6 0.0
31/03:30pm 19.5 12.9 11.5 60 4.4 NW 37 50 20 27 1022.6 1022.6 0.0
31/03:00pm 19.8 13.4 12.1 61 4.3 NW 37 50 20 27 1022.3 1022.3 0.0
31/02:30pm 20.2 13.5 12.2 60 4.5 NW 39 52 21 28 1022.4 1022.4 0.0
31/02:00pm 19.9 13.7 11.4 58 4.7 WNW 35 46 19 25 1022.9 1022.9 0.0
31/01:34pm 20.1 14.8 11.3 57 4.8 WNW 30 48 16 26 1023.1 1023.1 0.0
31/01:30pm 20.3 14.7 11.5 57 4.9 WNW 32 46 17 25 1023.2 1023.2 0.0
31/01:00pm 19.6 14.0 11.4 59 4.5 WNW 32 43 17 23 1023.4 1023.4 0.0
31/12:44pm 19.7 14.4 11.2 58 4.7 NW 30 48 16 26 1023.5 1023.5 0.0
31/12:30pm 19.5 14.1 10.8 57 4.7 WNW 30 43 16 23 1023.6 1023.6 0.0
31/12:00pm 19.3 14.0 11.1 59 4.5 WNW 30 44 16 24 1024.1 1024.1 0.0
31/11:30am 18.7 12.5 11.3 62 4.0 WNW 35 54 19 29 1024.4 1024.4 0.0
31/11:05am 17.8 11.3 10.4 62 4.0 NW 35 59 19 32 1024.5 1024.5 0.0
31/11:00am 18.0 12.0 10.9 63 3.8 NW 33 44 18 24 1024.6 1024.6 0.0
31/10:43am 17.8 12.0 10.7 63 3.8 WNW 32 50 17 27 1024.6 1024.6 0.0
31/10:30am 17.8 13.3 11.4 66 3.5 WNW 26 43 14 23 1024.7 1024.7 0.0
31/10:00am 17.7 14.6 11.5 67 3.4 WNW 19 26 10 14 1025.0 1025.0 0.0
31/09:30am 16.8 14.0 11.3 70 3.0 WNW 17 28 9 15 1025.1 1025.1 0.0
31/09:00am 15.7 12.8 10.9 73 2.5 WNW 17 24 9 13 1025.0 1025.0 0.0
31/08:30am 14.4 10.7 10.2 76 2.2 W 20 33 11 18 1025.0 1025.0 0.0
31/08:00am 13.1 9.9 9.9 81 1.6 W 17 24 9 13 1024.8 1024.8 0.0
31/07:30am 12.3 9.4 9.5 83 1.4 W 15 24 8 13 1024.6 1024.6 0.0
31/07:00am 12.6 9.4 10.0 84 1.3 NW 17 20 9 11 1024.3 1024.3 0.0
31/06:30am 13.0 9.3 9.4 79 1.8 WNW 19 28 10 15 1024.0 1024.0 0.0
31/06:00am 13.3 8.2 9.2 76 2.1 W 26 41 14 22 1023.7 1023.7 0.0
31/05:30am 13.3 8.2 9.2 76 2.1 W 26 35 14 19 1023.4 1023.4 0.0
31/05:00am 13.0 8.3 9.1 77 2.0 W 24 30 13 16 1023.3 1023.3 0.0
31/04:30am 13.1 7.6 9.2 77 2.0 W 28 35 15 19 1023.3 1023.3 0.0
31/04:00am 13.1 8.0 9.2 77 2.0 W 26 33 14 18 1023.2 1023.2 0.0
31/03:30am 13.3 8.7 9.5 78 1.9 W 24 32 13 17 1023.2 1023.2 0.0
31/03:00am 13.5 9.3 9.7 78 1.9 W 22 30 12 16 1023.1 1023.1 0.0
31/02:30am 13.8 8.9 9.8 77 2.1 W 26 32 14 17 1023.2 1023.2 0.0
31/02:00am 14.0 9.1 9.8 76 2.2 W 26 35 14 19 1023.2 1023.2 0.0
31/01:30am 14.1 8.9 10.1 77 2.1 W 28 35 15 19 1022.9 1022.9 0.0
31/01:00am 14.4 9.2 10.2 76 2.2 W 28 41 15 22 1022.9 1022.9 0.0
31/12:30am 14.8 9.3 10.4 75 2.3 WNW 30 39 16 21 1022.8 1022.8 0.0
31/12:00am 14.7 8.8 10.5 76 2.2 WNW 32 41 17 22 1022.9 1022.9 0.0
 
Date/Time
EDT
Temp
°C
App
Temp
°C
Dew
Point
Rel
Hum
%
Delta-T
°C
Wind Press
QNH
hPa
Press
MSL
hPa
Rain
since 9 am
mm
Dir
 
Spd
km/h
Gust
km/h
Spd
kts
Gust
kts
30/11:30pm 15.0 10.0 10.8 76 2.2 WNW 28 43 15 23 1022.7 1022.7 0.0
30/11:00pm 15.3 9.5 10.9 75 2.3 WNW 32 43 17 23 1022.5 1022.5 0.0
30/10:30pm 15.4 9.7 11.0 75 2.3 WNW 32 46 17 25 1022.4 1022.4 0.0
30/10:26pm 15.3 10.0 11.1 76 2.2 WNW 30 48 16 26 1022.4 1022.4 0.0
30/10:00pm 15.5 9.6 11.3 76 2.2 WNW 33 44 18 24 1022.2 1022.2 0.0
30/09:32pm 15.6 10.5 11.8 78 2.1 WNW 30 48 16 26 1022.0 1022.0 0.0
30/09:30pm 15.6 10.5 11.8 78 2.1 WNW 30 46 16 25 1022.1 1022.1 0.0
30/09:00pm 15.9 10.6 12.5 80 1.9 WNW 32 48 17 26 1021.8 1021.8 0.0
30/08:30pm 16.0 10.5 12.4 79 2.0 WNW 33 46 18 25 1021.6 1021.6 0.0
30/08:00pm 16.1 10.6 11.9 76 2.3 WNW 32 43 17 23 1021.3 1021.3 0.0
30/07:30pm 16.2 12.1 11.4 73 2.6 WNW 24 41 13 22 1021.2 1021.2 0.0
30/07:00pm 16.7 11.8 11.2 70 3.0 WNW 28 46 15 25 1020.9 1020.9 0.0
30/06:38pm 17.3 12.3 11.1 67 3.3 WNW 28 48 15 26 1020.4 1020.4 0.0
30/06:30pm 17.5 13.3 11.1 66 3.5 WNW 24 41 13 22 1020.5 1020.5 0.0
30/06:12pm 18.0 11.9 10.6 62 4.0 WNW 33 52 18 28 1020.2 1020.2 0.0
30/06:00pm 18.4 11.2 10.5 60 4.2 WNW 39 52 21 28 1019.8 1019.8 0.0
30/05:30pm 19.0 11.8 10.6 58 4.5 WNW 39 50 21 27 1019.7 1019.7 0.0
30/05:05pm 19.4 14.2 10.4 56 4.9 WNW 28 46 15 25 1020.0 1020.0 0.0
30/05:00pm 19.3 13.4 10.3 56 4.8 WNW 32 44 17 24 1020.1 1020.1 0.0
30/04:30pm 19.7 12.8 10.4 55 5.0 WNW 37 50 20 27 1019.7 1019.7 0.0
30/04:00pm 20.3 14.7 11.5 57 4.9 WNW 32 54 17 29 1019.9 1019.9 0.0
30/03:52pm 20.4 14.3 11.6 57 4.9 WNW 35 54 19 29 1020.0 1020.0 0.0
30/03:30pm 20.4 13.8 11.3 56 5.0 WNW 37 50 20 27 1019.8 1019.8 0.0
30/03:01pm 21.0 15.2 12.7 59 4.7 NW 35 54 19 29 1019.7 1019.7 0.0
30/03:00pm 21.1 15.9 13.3 61 4.5 NW 33 48 18 26 1019.7 1019.7 0.0
30/02:32pm 19.3 14.3 13.5 69 3.3 WNW 32 50 17 27 1020.0 1020.0 0.0
30/02:30pm 18.9 14.3 13.5 71 3.1 WNW 30 46 16 25 1020.0 1020.0 0.0
30/02:00pm 18.0 13.5 13.9 77 2.3 WNW 30 43 16 23 1020.5 1020.5 0.0
30/01:30pm 18.7 13.8 13.8 73 2.8 WNW 32 50 17 27 1020.8 1020.8 0.0
30/01:03pm 19.0 15.0 14.1 73 2.8 WNW 28 46 15 25 1020.9 1020.9 0.0
30/01:00pm 18.6 13.7 13.7 73 2.8 NW 32 46 17 25 1020.9 1020.9 0.0
30/12:30pm 18.8 13.8 13.9 73 2.8 WNW 33 50 18 27 1020.8 1020.8 0.0
30/12:07pm 18.8 14.2 13.6 72 3.0 NW 30 48 16 26 1020.7 1020.7 0.0
30/12:00pm 19.1 14.3 14.1 73 2.9 NW 32 48 17 26 1020.7 1020.7 0.0
30/11:30am 18.5 15.0 14.4 77 2.4 NW 26 35 14 19 1020.8 1020.8 0.0
30/11:00am 18.0 14.7 13.9 77 2.3 WNW 24 35 13 19 1020.9 1020.9 0.0
30/10:30am 18.1 15.6 14.0 77 2.3 NW 20 32 11 17 1020.8 1020.8 0.0
30/10:00am 17.5 13.1 13.0 75 2.5 NW 28 39 15 21 1020.6 1020.6 0.0
30/09:30am 16.9 12.5 13.0 78 2.2 NW 28 39 15 21 1020.3 1020.3 0.0
30/09:00am 16.4 12.3 12.6 78 2.1 WNW 26 35 14 19 1020.1 1020.1 0.0
30/08:30am 16.4 11.4 13.3 82 1.7 NW 32 44 17 24 1019.8 1019.8 0.0

Other Formats:

Comma delimited format used in spreadsheet applications
http://www.bom.gov.au/fwo/IDT60801/IDT60801.94983.axf

JavaScript Object Notation format (JSON) in row-major order
http://www.bom.gov.au/fwo/IDT60801/IDT60801.94983.json